This is the latest recevied weather packets stored in our database for station/object EA7AIS-10. If no packets are shown the sender has not sent any weather packets the latest 10 day(s).
| Time | Temp. | Humidity | Pressure | Rain* | Wind** | Luminosity | Snow |
|---|---|---|---|---|---|---|---|
| 1777456851 | 21.67° C | 68% | 1009 hPa | - | - | - | - |
| 1777455950 | 21.67° C | 68% | 1009 hPa | - | - | - | - |
| 1777455050 | 22.22° C | 69% | 1008.8 hPa | - | - | - | - |
| 1777454150 | 21.11° C | 72% | 1008.7 hPa | - | - | - | - |
| 1777453250 | 22.22° C | 70% | 1008.9 hPa | - | - | - | - |
| 1777452350 | 18.89° C | 84% | 1009 hPa | - | - | - | - |
| 1777451450 | 18.33° C | 86% | 1009 hPa | - | - | - | - |
| 1777450550 | 18.33° C | 85% | 1008.9 hPa | - | - | - | - |
| 1777449650 | 18.33° C | 86% | 1008.8 hPa | - | - | - | - |
| 1777448750 | 17.78° C | 89% | 1008.7 hPa | - | - | - | - |
| 1777447850 | 17.78° C | 92% | 1008.8 hPa | - | - | - | - |
| 1777446950 | 17.22° C | 94% | 1008.7 hPa | - | - | - | - |
| 1777446050 | 17.22° C | 92% | 1008.5 hPa | - | - | - | - |
| 1777445150 | 17.22° C | 90% | 1008.4 hPa | - | - | - | - |
| 1777444250 | 17.22° C | 90% | 1008.4 hPa | - | - | - | - |
| 1777443349 | 17.22° C | 91% | 1008.1 hPa | - | - | - | - |
| 1777442450 | 17.22° C | 89% | 1007.9 hPa | - | - | - | - |
| 1777441549 | 17.22° C | 88% | 1007.7 hPa | - | - | - | - |
| 1777440649 | 17.22° C | 88% | 1007.6 hPa | - | - | - | - |
| 1777439749 | 17.22° C | 88% | 1007.5 hPa | - | - | - | - |
| 1777438849 | 17.22° C | 89% | 1007.5 hPa | - | - | - | - |
| 1777437949 | 17.22° C | 90% | 1007.4 hPa | - | - | - | - |
| 1777437049 | 17.22° C | 90% | 1007.4 hPa | - | - | - | - |
| 1777436149 | 17.22° C | 90% | 1007.4 hPa | - | - | - | - |
| 1777435249 | 17.22° C | 89% | 1007.5 hPa | - | - | - | - |
* Rain since midnight (hover to see other rain measurements)
** Current wind speed in m/s (hover to see current wind gust speed)